Cabanatuan, Philippines

12:12 AM PHT on October 31, 2014 (GMT +0800)
Clark International | Change Station
CLOSE
Current Station
Airport
Location: Angeles / Pampanga,
Elevation: 509 ft
Nearby Weather Stations

Elev 509 ft 15.19 °N, 120.56 °E | Updated 12 minutes ago

Mostly Cloudy
Mostly Cloudy
79 °F
Feels Like 79 °F
N
7
Wind Variable Wind from WNW

Today
High -- | Low -- °F
--% Chance of Precip.
Yesterday
High -- | Low -- °F
Precip. -- in
5:51 AM 5:27 PM
Waxing Crescent, 45% visible
Pressure 29.89 in
Visibility 6.2 miles
Clouds Few 4200 ft
Mostly Cloudy 30000 ft
Dew Point 70 °F
Humidity 74%
Rainfall 0.00 in
Snow Depth Not available.
UV 0 out of 12
Pollen Not available.
Air Quality Not available.
Flu Activity Not available.
METAR RPLC 301600Z 29006KT 9999 FEW042 BKN300 26/21 Q1012 NOSIG RMK A2988

More Conditions Fewer Conditions

Pressure 29.89 in
Visibility 6.2 miles
Clouds Few 4200 ft
Mostly Cloudy 30000 ft
Dew Point 70 °F
Humidity 74%
Rainfall 0.00 in
Snow Depth Not available.
UV 0 out of 12
Pollen Not available.
Air Quality Not available.
Flu Activity Not available.
METAR RPLC 301600Z 29006KT 9999 FEW042 BKN300 26/21 Q1012 NOSIG RMK A2988

More Conditions Fewer Conditions

10-Day Weather Forecast

Almanac

Astronomy

Oct. 31, 2014 Rise Set
Actual Time
Civil Twilight
Nautical Twilight
Astronomical Twilight
Moon
Length of Visible Light
Length of Day
Tomorrow will be .
, % of the Moon is Illuminated

Today's Extremes

Country Highs Country Lows

Community

WunderPhotos

Upload Photos

1,766,398 photos uploaded!

WunderBlogs® & News

Nearby

Air Quality

  Air Quality AQ Index Pollutant
Not available.

Snow Depth

Station Depth Elevation

Earthquake Activity

City Distance Mag. Time & Date
Minimum magnitude displayed is 2.5.

Coastal Water Temperatures

Place Temperature

Nearby Weather Stations